createdAt,value
2019-05-06T00:00:01.653Z,100630.63
2019-05-06T00:02:30.318Z,100622.20
2019-05-06T00:04:58.742Z,100625.28
2019-05-06T00:07:27.292Z,100616.34
2019-05-06T00:09:55.734Z,100622.88
2019-05-06T00:12:24.284Z,100621.96
2019-05-06T00:14:54.199Z,100620.23
2019-05-06T00:17:23.960Z,100621.94
2019-05-06T00:19:54.038Z,100624.09
2019-05-06T00:22:23.753Z,100620.14
2019-05-06T00:24:59.700Z,100622.20
2019-05-06T00:27:34.160Z,100625.64
2019-05-06T00:30:04.495Z,100629.49
2019-05-06T00:32:34.746Z,100631.83
2019-05-06T00:35:04.561Z,100635.56
2019-05-06T00:37:34.883Z,100632.11
2019-05-06T00:40:08.097Z,100629.06
2019-05-06T00:42:38.164Z,100633.63
2019-05-06T00:45:07.805Z,100631.30
2019-05-06T00:47:36.493Z,100630.54
2019-05-06T00:50:06.358Z,100636.28
2019-05-06T00:52:35.561Z,100632.84
2019-05-06T00:55:04.563Z,100639.91
2019-05-06T00:57:45.051Z,100636.34
2019-05-06T01:00:16.887Z,100642.44
2019-05-06T01:02:45.379Z,100638.80
2019-05-06T01:05:14.650Z,100643.40
2019-05-06T01:07:44.103Z,100632.48
2019-05-06T01:10:14.622Z,100640.47
2019-05-06T01:12:44.769Z,100637.55
2019-05-06T01:15:15.881Z,100642.19
2019-05-06T01:17:44.462Z,100644.80
2019-05-06T01:20:14.025Z,100647.59
2019-05-06T01:22:43.712Z,100643.24
2019-05-06T01:25:14.175Z,100645.86
2019-05-06T01:27:44.447Z,100645.38
2019-05-06T01:30:15.280Z,100646.31
2019-05-06T01:32:43.741Z,100651.22
2019-05-06T01:35:14.015Z,100642.41
2019-05-06T01:37:44.510Z,100643.84
2019-05-06T01:40:21.091Z,100646.77
2019-05-06T01:42:54.194Z,100645.53
2019-05-06T01:45:23.751Z,100645.06
2019-05-06T01:47:54.291Z,100646.45
2019-05-06T01:50:23.501Z,100652.19
2019-05-06T01:52:54.040Z,100647.82
2019-05-06T01:55:23.881Z,100653.11
2019-05-06T01:57:54.413Z,100649.56
2019-05-06T02:00:23.658Z,100651.66
2019-05-06T02:02:54.624Z,100650.30
2019-05-06T02:05:24.196Z,100652.52
2019-05-06T02:07:54.914Z,100646.45
2019-05-06T02:10:23.861Z,100650.81
2019-05-06T02:12:54.068Z,100655.78
2019-05-06T02:15:23.924Z,100659.66
2019-05-06T02:17:54.985Z,100657.05
2019-05-06T02:20:24.599Z,100656.72
2019-05-06T02:22:54.524Z,100651.44
2019-05-06T02:25:24.660Z,100658.09
2019-05-06T02:27:54.166Z,100662.12
2019-05-06T02:30:27.435Z,100657.77
2019-05-06T02:33:04.360Z,100658.55
2019-05-06T02:35:37.384Z,100657.31
2019-05-06T02:38:07.486Z,100663.43
2019-05-06T02:40:35.920Z,100655.14
2019-05-06T02:43:04.360Z,100654.28
2019-05-06T02:45:33.701Z,100654.71
2019-05-06T02:48:13.999Z,100658.67
2019-05-06T02:50:47.211Z,100657.78
2019-05-06T02:53:17.287Z,100653.86
2019-05-06T02:55:45.713Z,100659.44
2019-05-06T02:58:15.115Z,100660.06
2019-05-06T03:00:43.655Z,100662.53
2019-05-06T03:03:13.946Z,100658.61
2019-05-06T03:05:43.957Z,100661.37
2019-05-06T03:08:13.470Z,100659.65
2019-05-06T03:10:44.168Z,100658.30
2019-05-06T03:13:14.268Z,100658.80
2019-05-06T03:15:43.560Z,100660.94
2019-05-06T03:18:14.764Z,100660.48
2019-05-06T03:20:53.286Z,100658.71
2019-05-06T03:23:26.335Z,100653.48
2019-05-06T03:25:54.783Z,100650.42
2019-05-06T03:28:23.235Z,100653.02
2019-05-06T03:30:56.237Z,100652.49
2019-05-06T03:33:44.656Z,100659.30
2019-05-06T03:36:05.264Z,100659.34
2019-05-06T03:38:22.985Z,100659.31
2019-05-06T03:40:53.781Z,100659.31
2019-05-06T03:43:23.251Z,100665.53
2019-05-06T03:45:53.860Z,100661.14
2019-05-06T03:48:24.134Z,100662.89
2019-05-06T03:50:55.630Z,100665.55
2019-05-06T03:53:23.302Z,100669.06
2019-05-06T03:55:54.244Z,100669.50
2019-05-06T03:58:26.846Z,100671.23
2019-05-06T04:00:57.042Z,100675.20
2019-05-06T04:03:42.413Z,100683.09
2019-05-06T04:05:55.956Z,100683.11
2019-05-06T04:08:24.725Z,100686.59
2019-05-06T04:10:54.454Z,100685.27
2019-05-06T04:13:23.268Z,100690.52
2019-05-06T04:16:10.209Z,100691.76
2019-05-06T04:18:43.947Z,100690.44
2019-05-06T04:21:16.700Z,100698.37
2019-05-06T04:23:46.941Z,100695.75
2019-05-06T04:26:17.412Z,100699.73
2019-05-06T04:28:45.916Z,100701.48
2019-05-06T04:31:14.426Z,100702.77
2019-05-06T04:33:55.518Z,100704.55
2019-05-06T04:36:13.461Z,100702.83
2019-05-06T04:38:43.403Z,100711.17
2019-05-06T04:41:13.654Z,100715.11
2019-05-06T04:43:43.951Z,100717.31
2019-05-06T04:46:16.513Z,100713.36
2019-05-06T04:48:43.439Z,100715.55
2019-05-06T04:51:13.624Z,100722.16
2019-05-06T04:53:44.094Z,100727.02
2019-05-06T04:56:14.387Z,100718.22
2019-05-06T04:58:43.409Z,100719.85
2019-05-06T05:01:15.720Z,100722.66
2019-05-06T05:03:42.819Z,100723.75
2019-05-06T05:06:13.589Z,100725.56
2019-05-06T05:08:42.714Z,100729.44
2019-05-06T05:11:15.842Z,100729.14
2019-05-06T05:13:48.710Z,100735.16
2019-05-06T05:16:24.947Z,100730.86
2019-05-06T05:18:55.672Z,100738.07
2019-05-06T05:21:24.101Z,100733.45
2019-05-06T05:23:53.093Z,100738.89
2019-05-06T05:26:22.544Z,100737.44
2019-05-06T05:28:53.239Z,100745.28
2019-05-06T05:31:23.055Z,100745.39
2019-05-06T05:33:52.614Z,100755.55
2019-05-06T05:36:23.154Z,100750.02
2019-05-06T05:38:52.327Z,100751.98
2019-05-06T05:41:23.206Z,100749.96
2019-05-06T05:44:02.459Z,100749.95
2019-05-06T05:46:32.898Z,100756.95
2019-05-06T05:49:09.483Z,100756.38
2019-05-06T05:51:37.982Z,100758.22
2019-05-06T05:54:06.545Z,100762.04
2019-05-06T05:56:35.110Z,100758.70
2019-05-06T05:59:03.682Z,100755.33
2019-05-06T06:01:32.802Z,100758.91
2019-05-06T06:04:03.167Z,100761.27
2019-05-06T06:06:33.244Z,100764.28
2019-05-06T06:09:03.039Z,100764.42
2019-05-06T06:11:45.598Z,100768.66
2019-05-06T06:14:33.031Z,100761.86
2019-05-06T06:17:05.714Z,100766.97
2019-05-06T06:19:38.993Z,100768.55
2019-05-06T06:22:09.205Z,100764.05
2019-05-06T06:24:37.726Z,100763.73
2019-05-06T06:27:06.233Z,100764.77
2019-05-06T06:29:34.786Z,100761.57
2019-05-06T06:32:13.568Z,100764.25
2019-05-06T06:34:48.720Z,100766.38
2019-05-06T06:37:34.041Z,100757.83
2019-05-06T06:40:04.491Z,100760.78
2019-05-06T06:42:33.508Z,100765.40
2019-05-06T06:45:03.546Z,100755.59
2019-05-06T06:47:32.215Z,100763.05
2019-05-06T06:50:02.834Z,100759.56
2019-05-06T06:52:32.587Z,100765.64
2019-05-06T06:55:02.270Z,100769.50
2019-05-06T06:57:35.203Z,100769.75
2019-05-06T07:00:06.054Z,100768.70
2019-05-06T07:02:36.394Z,100764.84
2019-05-06T07:05:27.552Z,100769.36
2019-05-06T07:07:53.088Z,100770.55
2019-05-06T07:10:39.011Z,100766.32
2019-05-06T07:13:07.696Z,100770.86
2019-05-06T07:15:36.184Z,100766.16
2019-05-06T07:18:04.890Z,100765.97
2019-05-06T07:20:52.545Z,100772.61
2019-05-06T07:23:25.398Z,100772.19
2019-05-06T07:25:54.780Z,100769.22
2019-05-06T07:28:24.432Z,100766.14
2019-05-06T07:30:54.309Z,100772.75
2019-05-06T07:33:23.159Z,100773.45
2019-05-06T07:35:52.920Z,100774.31
2019-05-06T07:38:23.069Z,100771.84
2019-05-06T07:40:53.621Z,100774.73
2019-05-06T07:43:39.200Z,100779.12
2019-05-06T07:46:25.530Z,100781.63
2019-05-06T07:48:54.067Z,100786.84
2019-05-06T07:51:23.889Z,100781.38
2019-05-06T07:53:52.586Z,100783.31
2019-05-06T07:56:22.502Z,100779.95
2019-05-06T07:58:53.007Z,100780.74
2019-05-06T08:01:25.920Z,100779.22
2019-05-06T08:03:53.268Z,100783.17
2019-05-06T08:06:22.637Z,100780.89
2019-05-06T08:08:53.629Z,100773.18
2019-05-06T08:11:22.317Z,100774.61
2019-05-06T08:13:52.779Z,100775.54
2019-05-06T08:16:22.567Z,100775.27
2019-05-06T08:18:52.470Z,100770.11
2019-05-06T08:21:25.868Z,100768.66
2019-05-06T08:23:55.256Z,100773.45
2019-05-06T08:26:23.876Z,100774.84
2019-05-06T08:28:52.872Z,100776.37
2019-05-06T08:31:22.582Z,100773.02
2019-05-06T08:33:52.472Z,100772.75
2019-05-06T08:36:32.906Z,100775.05
2019-05-06T08:39:03.110Z,100768.70
2019-05-06T08:41:33.221Z,100767.09
2019-05-06T08:44:02.644Z,100764.50
2019-05-06T08:46:32.691Z,100757.61
2019-05-06T08:49:03.016Z,100760.11
2019-05-06T08:51:37.048Z,100759.48
2019-05-06T08:54:07.197Z,100757.94
2019-05-06T08:56:35.644Z,100763.14
2019-05-06T08:59:04.563Z,100751.98
2019-05-06T09:01:37.112Z,100752.58
2019-05-06T09:04:12.194Z,100756.04
2019-05-06T09:06:36.461Z,100755.48
2019-05-06T09:09:07.229Z,100746.18
2019-05-06T09:11:35.923Z,100758.80
2019-05-06T09:14:04.912Z,100749.74
2019-05-06T09:16:33.342Z,100752.20
2019-05-06T09:19:04.432Z,100752.89
2019-05-06T09:21:33.578Z,100752.17
2019-05-06T09:24:02.486Z,100755.11
2019-05-06T09:26:32.854Z,100760.23
2019-05-06T09:29:02.952Z,100760.23
2019-05-06T09:31:33.028Z,100747.84
2019-05-06T09:34:05.564Z,100753.34
2019-05-06T09:36:43.715Z,100749.81
2019-05-06T09:39:06.604Z,100748.72
2019-05-06T09:41:35.069Z,100745.80
2019-05-06T09:44:03.856Z,100752.06
2019-05-06T09:46:32.305Z,100743.42
2019-05-06T09:49:03.286Z,100752.05
2019-05-06T09:51:32.471Z,100745.84
2019-05-06T09:54:04.027Z,100745.63
2019-05-06T09:56:49.790Z,100747.66
2019-05-06T09:59:18.361Z,100743.80
2019-05-06T10:01:46.871Z,100747.47
2019-05-06T10:04:15.945Z,100742.89
2019-05-06T10:06:56.244Z,100743.23
2019-05-06T10:09:16.263Z,100738.95
2019-05-06T10:11:44.986Z,100741.95
2019-05-06T10:14:13.547Z,100746.92
2019-05-06T10:16:42.959Z,100748.14
2019-05-06T10:19:13.225Z,100745.27
2019-05-06T10:21:42.749Z,100747.62
2019-05-06T10:24:11.468Z,100745.64
2019-05-06T10:26:45.071Z,100750.80
2019-05-06T10:29:24.324Z,100745.06
2019-05-06T10:31:59.963Z,100740.28
2019-05-06T10:34:28.376Z,100738.36
2019-05-06T10:37:19.347Z,100735.90
2019-05-06T10:40:13.360Z,100735.95
2019-05-06T10:42:56.244Z,100731.81
2019-05-06T10:45:29.750Z,100730.92
2019-05-06T10:47:58.619Z,100731.92
2019-05-06T10:50:28.964Z,100731.09
2019-05-06T10:53:07.527Z,100723.61
2019-05-06T10:55:37.816Z,100726.29
2019-05-06T10:58:06.299Z,100716.80
2019-05-06T11:00:34.792Z,100707.91
2019-05-06T11:03:14.374Z,100707.34
2019-05-06T11:05:43.150Z,100706.84
2019-05-06T11:08:11.964Z,100696.27
2019-05-06T11:10:44.292Z,100687.64
2019-05-06T11:13:12.811Z,100692.64
2019-05-06T11:15:43.452Z,100696.40
2019-05-06T11:18:13.594Z,100694.61
2019-05-06T11:20:43.817Z,100689.62
2019-05-06T11:23:13.930Z,100684.09
2019-05-06T11:25:43.218Z,100686.67
2019-05-06T11:28:30.104Z,100686.66
2019-05-06T11:31:02.548Z,100680.86
2019-05-06T11:33:42.549Z,100677.62
2019-05-06T11:36:15.277Z,100672.59
2019-05-06T11:38:43.250Z,100666.18
2019-05-06T11:41:13.163Z,100662.41
2019-05-06T11:43:42.878Z,100666.20
2019-05-06T11:46:12.290Z,100668.16
2019-05-06T11:48:43.087Z,100659.32
2019-05-06T11:51:12.938Z,100651.27
2019-05-06T11:53:41.375Z,100652.89
2019-05-06T11:56:09.947Z,100651.46
2019-05-06T11:58:49.302Z,100640.05
2019-05-06T12:01:19.368Z,100647.78
2019-05-06T12:03:47.815Z,100648.30
2019-05-06T12:06:16.280Z,100653.08
2019-05-06T12:08:44.713Z,100655.29
2019-05-06T12:11:13.141Z,100653.92
2019-05-06T12:13:42.662Z,100653.41
2019-05-06T12:16:14.168Z,100652.47
2019-05-06T12:18:42.460Z,100652.12
2019-05-06T12:21:14.582Z,100651.55
2019-05-06T12:23:44.812Z,100648.20
2019-05-06T12:26:13.215Z,100644.47
2019-05-06T12:28:43.458Z,100650.73
2019-05-06T12:31:12.667Z,100648.66
2019-05-06T12:33:42.909Z,100640.16
2019-05-06T12:36:14.943Z,100643.83
2019-05-06T12:39:06.332Z,100641.55
2019-05-06T12:41:33.557Z,100639.64
2019-05-06T12:44:03.172Z,100643.08
2019-05-06T12:46:36.444Z,100640.34
2019-05-06T12:49:05.627Z,100638.61
2019-05-06T12:51:34.059Z,100636.34
2019-05-06T12:54:03.494Z,100638.14
2019-05-06T12:56:32.227Z,100638.39
2019-05-06T12:59:02.113Z,100635.16
2019-05-06T13:01:33.886Z,100639.67
2019-05-06T13:04:04.192Z,100637.52
2019-05-06T13:06:33.418Z,100638.61
2019-05-06T13:09:04.993Z,100634.70
2019-05-06T13:11:31.901Z,100635.52
2019-05-06T13:14:03.399Z,100635.34
2019-05-06T13:16:33.235Z,100639.52
2019-05-06T13:19:03.105Z,100632.06
2019-05-06T13:21:32.782Z,100633.92
2019-05-06T13:24:04.582Z,100624.70
2019-05-06T13:26:33.205Z,100624.11
2019-05-06T13:29:04.373Z,100632.66
2019-05-06T13:31:33.012Z,100631.44
2019-05-06T13:34:03.291Z,100642.39
2019-05-06T13:36:33.273Z,100635.94
2019-05-06T13:39:13.966Z,100632.34
2019-05-06T13:41:32.783Z,100633.14
2019-05-06T13:44:08.450Z,100632.59
2019-05-06T13:46:38.624Z,100633.84
2019-05-06T13:49:08.970Z,100635.77
2019-05-06T13:51:39.105Z,100632.12
2019-05-06T13:54:07.568Z,100637.87
2019-05-06T13:56:36.064Z,100633.59
2019-05-06T13:59:05.432Z,100636.18
2019-05-06T14:01:43.877Z,100634.89
2019-05-06T14:04:20.526Z,100632.50
2019-05-06T14:06:49.182Z,100638.48
2019-05-06T14:09:28.739Z,100640.16
2019-05-06T14:11:47.766Z,100636.03
2019-05-06T14:14:16.216Z,100637.95
2019-05-06T14:16:44.647Z,100637.98
2019-05-06T14:19:13.359Z,100635.30
2019-05-06T14:21:43.120Z,100629.92
2019-05-06T14:24:13.266Z,100632.41
2019-05-06T14:26:44.773Z,100637.28
2019-05-06T14:29:15.469Z,100632.07
2019-05-06T14:31:45.541Z,100632.11
2019-05-06T14:34:14.353Z,100634.14
2019-05-06T14:36:43.406Z,100638.47
2019-05-06T14:39:25.543Z,100638.32
2019-05-06T14:41:55.719Z,100635.38
2019-05-06T14:44:24.215Z,100632.75
2019-05-06T14:47:00.353Z,100644.37
2019-05-06T14:49:28.809Z,100640.76
2019-05-06T14:51:57.236Z,100636.98
2019-05-06T14:54:25.677Z,100641.81
2019-05-06T14:56:55.854Z,100641.38
2019-05-06T14:59:24.285Z,100644.08
2019-05-06T15:01:53.644Z,100639.80
2019-05-06T15:04:23.092Z,100634.14
2019-05-06T15:06:52.970Z,100636.53
2019-05-06T15:09:22.647Z,100634.55
2019-05-06T15:11:51.321Z,100631.76
2019-05-06T15:14:22.509Z,100628.98
2019-05-06T15:16:52.544Z,100632.88
2019-05-06T15:19:22.569Z,100631.24
2019-05-06T15:21:52.913Z,100634.23
2019-05-06T15:24:21.892Z,100641.64
2019-05-06T15:26:52.189Z,100631.80
2019-05-06T15:29:23.495Z,100632.86
2019-05-06T15:31:58.200Z,100630.53
2019-05-06T15:34:42.161Z,100629.73
2019-05-06T15:37:20.755Z,100641.12
2019-05-06T15:39:49.199Z,100638.11
2019-05-06T15:42:17.650Z,100637.50
2019-05-06T15:44:46.104Z,100637.83
2019-05-06T15:47:14.527Z,100640.09
2019-05-06T15:49:43.040Z,100643.48
2019-05-06T15:52:12.509Z,100640.17
2019-05-06T15:54:43.082Z,100640.58
2019-05-06T15:57:11.343Z,100639.89
2019-05-06T15:59:42.191Z,100644.00
2019-05-06T16:02:10.649Z,100639.48
2019-05-06T16:04:39.097Z,100642.83
2019-05-06T16:07:07.624Z,100642.36
2019-05-06T16:09:36.055Z,100637.33
2019-05-06T16:12:04.650Z,100638.98
2019-05-06T16:14:34.950Z,100646.62
2019-05-06T16:17:03.428Z,100644.55
2019-05-06T16:19:33.594Z,100641.70
2019-05-06T16:22:04.171Z,100646.25
2019-05-06T16:24:35.156Z,100650.78
2019-05-06T16:27:03.764Z,100647.70
2019-05-06T16:29:35.320Z,100650.77
2019-05-06T16:32:05.266Z,100649.86
2019-05-06T16:34:33.692Z,100646.47
2019-05-06T16:37:02.586Z,100642.60
2019-05-06T16:39:33.035Z,100643.15
2019-05-06T16:42:03.587Z,100638.05
2019-05-06T16:44:31.702Z,100634.30
2019-05-06T16:47:00.129Z,100630.25
2019-05-06T16:49:30.281Z,100636.07
2019-05-06T16:51:58.745Z,100641.27
2019-05-06T16:54:27.847Z,100636.59
2019-05-06T16:57:07.300Z,100636.94
2019-05-06T16:59:37.272Z,100627.48
2019-05-06T17:02:07.475Z,100630.22
2019-05-06T17:04:37.581Z,100629.52
2019-05-06T17:07:06.026Z,100627.97
2019-05-06T17:09:34.436Z,100626.60
2019-05-06T17:12:04.692Z,100628.94
2019-05-06T17:14:33.316Z,100635.78
2019-05-06T17:17:03.292Z,100634.61
2019-05-06T17:19:32.825Z,100636.16
2019-05-06T17:22:03.032Z,100637.08
2019-05-06T17:24:33.059Z,100637.91
2019-05-06T17:27:02.722Z,100643.90
2019-05-06T17:29:38.712Z,100637.95
2019-05-06T17:32:14.564Z,100642.02
2019-05-06T17:34:44.629Z,100644.53
2019-05-06T17:37:14.707Z,100646.99
2019-05-06T17:39:43.157Z,100651.98
2019-05-06T17:42:11.592Z,100644.72
2019-05-06T17:44:40.016Z,100647.84
2019-05-06T17:47:13.080Z,100645.84
2019-05-06T17:49:42.201Z,100648.81
2019-05-06T17:52:12.459Z,100644.56
2019-05-06T17:54:43.050Z,100643.39
2019-05-06T17:57:12.328Z,100640.06
2019-05-06T17:59:42.021Z,100645.07
2019-05-06T18:02:12.327Z,100640.34
2019-05-06T18:04:43.083Z,100642.98
2019-05-06T18:07:12.269Z,100647.34
2019-05-06T18:09:42.617Z,100643.06
2019-05-06T18:12:12.149Z,100637.73
2019-05-06T18:14:40.765Z,100638.92
2019-05-06T18:17:09.289Z,100641.65
2019-05-06T18:19:37.754Z,100637.88
2019-05-06T18:22:06.252Z,100637.33
2019-05-06T18:24:34.777Z,100637.52
2019-05-06T18:27:03.215Z,100640.64
2019-05-06T18:29:33.395Z,100636.09
2019-05-06T18:32:03.739Z,100639.30
2019-05-06T18:34:33.072Z,100638.44
2019-05-06T18:37:03.148Z,100644.80
2019-05-06T18:39:33.708Z,100646.00
2019-05-06T18:42:15.436Z,100651.55
2019-05-06T18:44:33.370Z,100654.38
2019-05-06T18:47:02.813Z,100657.55
2019-05-06T18:49:33.689Z,100656.21
2019-05-06T18:52:02.155Z,100656.75
2019-05-06T18:54:33.580Z,100653.89
2019-05-06T18:57:04.608Z,100651.73
2019-05-06T18:59:33.020Z,100657.55
2019-05-06T19:02:02.106Z,100658.34
2019-05-06T19:04:41.974Z,100659.71
2019-05-06T19:07:16.213Z,100659.03
2019-05-06T19:09:42.522Z,100656.66
2019-05-06T19:12:12.844Z,100654.80
2019-05-06T19:14:43.207Z,100655.06
2019-05-06T19:17:13.179Z,100657.60
2019-05-06T19:19:42.620Z,100662.64
2019-05-06T19:22:13.737Z,100664.63
2019-05-06T19:24:42.406Z,100666.97
2019-05-06T19:27:12.768Z,100670.19
2019-05-06T19:29:43.330Z,100674.10
2019-05-06T19:32:12.289Z,100673.48
2019-05-06T19:34:42.274Z,100675.20
2019-05-06T19:37:10.873Z,100675.75
2019-05-06T19:39:39.299Z,100681.45
2019-05-06T19:42:07.724Z,100681.94
2019-05-06T19:44:36.346Z,100678.50
2019-05-06T19:47:04.906Z,100679.67
2019-05-06T19:49:33.416Z,100684.07
2019-05-06T19:52:03.229Z,100680.19
2019-05-06T19:54:33.071Z,100678.21
2019-05-06T19:57:02.472Z,100681.42
2019-05-06T19:59:32.981Z,100680.13
2019-05-06T20:02:01.354Z,100683.74
2019-05-06T20:04:30.278Z,100680.83
2019-05-06T20:07:02.521Z,100682.61
2019-05-06T20:09:47.919Z,100676.34
2019-05-06T20:12:22.945Z,100676.41
2019-05-06T20:14:52.495Z,100681.23
2019-05-06T20:17:22.307Z,100681.89
2019-05-06T20:19:51.906Z,100676.86
2019-05-06T20:22:20.438Z,100684.90
2019-05-06T20:24:48.864Z,100681.23
2019-05-06T20:27:17.325Z,100681.64
2019-05-06T20:29:45.773Z,100682.91
2019-05-06T20:32:14.187Z,100686.17
2019-05-06T20:34:42.997Z,100682.97
2019-05-06T20:37:12.833Z,100682.19
2019-05-06T20:39:43.347Z,100676.01
2019-05-06T20:42:12.745Z,100679.02
2019-05-06T20:44:43.436Z,100679.38
2019-05-06T20:47:13.073Z,100679.80
2019-05-06T20:49:43.181Z,100677.27
2019-05-06T20:52:12.253Z,100670.58
2019-05-06T20:54:42.709Z,100679.11
2019-05-06T20:57:12.322Z,100671.34
2019-05-06T20:59:41.965Z,100670.38
2019-05-06T21:02:12.457Z,100667.27
2019-05-06T21:04:42.971Z,100670.89
2019-05-06T21:07:12.420Z,100670.52
2019-05-06T21:09:43.237Z,100671.46
2019-05-06T21:12:11.205Z,100661.27
2019-05-06T21:14:41.931Z,100662.08
2019-05-06T21:17:12.158Z,100663.86
2019-05-06T21:19:40.408Z,100666.12
2019-05-06T21:22:08.851Z,100666.03
2019-05-06T21:24:37.259Z,100662.11
2019-05-06T21:27:05.723Z,100660.39
2019-05-06T21:29:34.156Z,100666.09
2019-05-06T21:32:02.860Z,100660.19
2019-05-06T21:34:32.813Z,100660.16
2019-05-06T21:37:02.950Z,100654.61
2019-05-06T21:39:32.752Z,100654.80
2019-05-06T21:42:01.428Z,100656.11
2019-05-06T21:44:30.283Z,100657.06
2019-05-06T21:46:59.999Z,100652.78
2019-05-06T21:49:28.455Z,100656.67
2019-05-06T21:51:56.875Z,100657.52
2019-05-06T21:54:25.297Z,100644.59
2019-05-06T21:56:53.776Z,100648.48
2019-05-06T21:59:22.205Z,100647.16
2019-05-06T22:01:52.060Z,100644.42
2019-05-06T22:04:23.008Z,100646.71
2019-05-06T22:06:52.473Z,100639.09
2019-05-06T22:09:22.617Z,100648.18
2019-05-06T22:11:52.946Z,100647.72
2019-05-06T22:14:22.945Z,100645.44
2019-05-06T22:16:51.652Z,100651.33
2019-05-06T22:19:20.105Z,100648.27
2019-05-06T22:22:03.357Z,100645.02
2019-05-06T22:24:40.013Z,100647.78
2019-05-06T22:27:08.511Z,100648.23
2019-05-06T22:29:36.951Z,100651.00
2019-05-06T22:32:05.482Z,100649.75
2019-05-06T22:34:33.975Z,100648.09
2019-05-06T22:37:03.321Z,100648.17
2019-05-06T22:39:34.178Z,100645.41
2019-05-06T22:42:02.079Z,100640.91
2019-05-06T22:44:32.474Z,100647.13
2019-05-06T22:47:02.726Z,100639.83
2019-05-06T22:49:32.073Z,100640.84
2019-05-06T22:52:02.785Z,100639.12
2019-05-06T22:54:32.047Z,100638.08
2019-05-06T22:57:02.355Z,100642.00
2019-05-06T22:59:32.818Z,100638.50
2019-05-06T23:02:15.402Z,100634.23
2019-05-06T23:04:45.460Z,100639.23
2019-05-06T23:07:14.361Z,100640.50
2019-05-06T23:09:42.980Z,100637.55
2019-05-06T23:12:12.276Z,100638.36
2019-05-06T23:14:42.037Z,100639.83
2019-05-06T23:17:12.676Z,100640.80
2019-05-06T23:19:42.809Z,100644.23
2019-05-06T23:22:12.093Z,100638.91
2019-05-06T23:24:41.277Z,100638.45
2019-05-06T23:27:09.708Z,100636.73
2019-05-06T23:29:38.135Z,100630.22
2019-05-06T23:32:06.795Z,100633.29
2019-05-06T23:34:35.219Z,100637.34
2019-05-06T23:37:06.691Z,100633.52
2019-05-06T23:40:13.007Z,100631.08
2019-05-06T23:43:17.623Z,100632.41
2019-05-06T23:46:22.933Z,100628.40
2019-05-06T23:49:27.840Z,100633.28
2019-05-06T23:52:32.839Z,100627.71
2019-05-06T23:55:37.552Z,100630.27
2019-05-06T23:58:04.851Z,100620.29
